메인 페이지
METAR-TAF:

METAR-TAF

공항 :

반덴버그 공군 기지

반덴버그, 캘리포니아, 미국

위도: 34-45N, 경도: 120-34W, 고도: 112m

현재 날씨관측

예보는 1 시간 19분 전, 04:55시(UTC)에 발표되었습니다.
11kt
온도 11°C
습도 94%
기압 1013 hPa
시정: 16.1km
맑음

METAR: KVBG 200455Z AUTO 35011KT 10SM CLR 11/10 A2992 RMK AO2 SLP135 T01120101 TSNO $

시각: 23:14 (06:14 UTC)

예보

예보는 29 시간 43분 전, 00:31시(UTC)에 발표되었습니다.
예보 대상 시간: 18일 22시부터 20일 04시까지 (UTC)
북서14kt
시정 10km 이상
고도 500ft 상공 구름 조금
고도 18000ft 상공 구름 조금
고도 25000ft 상공 구름 보통
전환 중
19일 03시부터 19일 04시까지 (UTC)
6kt
시정 10km 이상
고도 18000ft 상공 구름 조금
고도 25000ft 상공 구름 보통
전환 중
19일 11시부터 19일 12시까지 (UTC)
6kt
시정: 4800m
고도 200ft 상공 구름 보통
고도 25000ft 상공 구름 많음
박무
전환 중
09일 15시부터 09일 16시까지 (UTC)
6kt
시정 10km 이상
고도 25000ft 상공 구름 보통
전환 중
09일 20시부터 09일 21시까지 (UTC)
8kt, 순간 최대 풍속 15kt
시정: 2015m
고도 25000ft 상공 구름 보통

TAF: KVBG 190031Z 1822/2004 32014KT 9999 FEW005 FEW180 SCT250 QNH2982INS BECMG 1903/1904 34009KT 9999 FEW180 SCT250 QNH2981INS WND 35006KT AFT 06 BECMG 1911/1912 35006KT 4800 BR SCT002 BKN250 QNH2983INS BECMG 0915/0916 35006KT 9999 NSW SCT250 QNH2985INS BECMG 0920/0921 33010G15KT 9999 SCT250 QNH2990INS WND 35008KT AFT 03 TX20/1920Z TN08/1913Z LAST NO AMDS AFT 1902 NEXT 2015

4,000개 이상의 공항 관측 자료 및 예보 (METAR 및 TAF 보고).

지도상에서 검색 가능한 기상관측소가 노란 점과 빨간 점으로 표시되어 있습니다.

기상관측소 명을 보려면 표시 위로 마우스를 이동하세요.

날씨 관측과 예보를 보려면 클릭하세요.

지도 변경 : 확대하려면 엑스 표시가 있는 녹색 버튼, 축소하려면 빼기 표시가 있는 녹색 버튼, 다음 페이지의 지도를 보려면 녹색 화살표를 클릭하세요.


METAR-TAF: